createdAt,value
2018-05-07T00:01:12.718Z,75.40
2018-05-07T00:03:40.140Z,75.90
2018-05-07T00:06:07.674Z,76.50
2018-05-07T00:08:35.959Z,76.90
2018-05-07T00:11:03.481Z,76.90
2018-05-07T00:13:30.981Z,77.10
2018-05-07T00:15:58.523Z,76.90
2018-05-07T00:18:26.791Z,77.30
2018-05-07T00:20:55.091Z,77.20
2018-05-07T00:23:22.591Z,77.20
2018-05-07T00:25:50.097Z,77.30
2018-05-07T00:28:18.533Z,77.10
2018-05-07T00:30:46.794Z,77.70
2018-05-07T00:33:14.365Z,77.60
2018-05-07T00:35:41.858Z,78.20
2018-05-07T00:38:10.165Z,78.80
2018-05-07T00:40:37.716Z,78.70
2018-05-07T00:43:05.284Z,78.80
2018-05-07T00:45:32.817Z,79.20
2018-05-07T00:48:01.091Z,78.90
2018-05-07T00:50:29.436Z,79.60
2018-05-07T00:52:57.628Z,79.40
2018-05-07T00:55:25.917Z,78.60
2018-05-07T00:57:54.208Z,79.20
2018-05-07T01:00:21.747Z,79.20
2018-05-07T01:02:51.276Z,79.90
2018-05-07T01:05:18.794Z,79.70
2018-05-07T01:07:46.390Z,79.40
2018-05-07T01:10:13.930Z,79.50
2018-05-07T01:12:42.248Z,80.30
2018-05-07T01:15:09.761Z,80.30
2018-05-07T01:17:38.032Z,80.10
2018-05-07T01:20:05.555Z,80.10
2018-05-07T01:22:33.076Z,80.00
2018-05-07T01:25:01.345Z,80.10
2018-05-07T01:27:29.637Z,79.80
2018-05-07T01:29:57.138Z,79.80
2018-05-07T01:32:24.674Z,79.60
2018-05-07T01:34:52.189Z,79.90
2018-05-07T01:37:20.476Z,81.10
2018-05-07T01:39:47.968Z,81.00
2018-05-07T01:42:16.209Z,81.50
2018-05-07T01:44:43.744Z,81.80
2018-05-07T01:47:12.032Z,82.50
2018-05-07T01:49:40.295Z,82.50
2018-05-07T01:52:07.800Z,82.40
2018-05-07T01:54:35.314Z,82.80
2018-05-07T01:57:02.811Z,83.20
2018-05-07T01:59:30.397Z,83.40
2018-05-07T02:01:57.937Z,83.70
2018-05-07T02:04:25.489Z,83.90
2018-05-07T02:06:53.016Z,84.10
2018-05-07T02:09:21.286Z,84.50
2018-05-07T02:11:49.574Z,84.60
2018-05-07T02:14:17.883Z,84.70
2018-05-07T02:16:46.157Z,85.00
2018-05-07T02:19:13.692Z,85.00
2018-05-07T02:21:42.747Z,85.40
2018-05-07T02:24:10.256Z,85.20
2018-05-07T02:26:37.770Z,85.40
2018-05-07T02:29:06.009Z,85.60
2018-05-07T02:31:33.527Z,85.70
2018-05-07T02:34:01.814Z,87.00
2018-05-07T02:36:30.093Z,87.10
2018-05-07T02:38:59.160Z,86.90
2018-05-07T02:41:26.636Z,86.90
2018-05-07T02:43:54.921Z,85.40
2018-05-07T02:46:22.450Z,86.30
2018-05-07T02:48:50.025Z,86.10
2018-05-07T02:51:18.349Z,86.50
2018-05-07T02:53:45.902Z,86.40
2018-05-07T02:56:13.456Z,86.40
2018-05-07T02:58:40.996Z,86.40
2018-05-07T03:01:10.182Z,86.40
2018-05-07T03:03:37.695Z,86.30
2018-05-07T03:06:05.204Z,86.40
2018-05-07T03:08:32.732Z,86.40
2018-05-07T03:11:00.225Z,86.30
2018-05-07T03:13:27.743Z,86.10
2018-05-07T03:15:55.322Z,86.10
2018-05-07T03:18:22.913Z,85.80
2018-05-07T03:20:50.490Z,85.90
2018-05-07T03:23:18.067Z,85.80
2018-05-07T03:25:45.619Z,85.70
2018-05-07T03:28:13.176Z,85.80
2018-05-07T03:30:40.708Z,85.70
2018-05-07T03:33:08.776Z,85.50
2018-05-07T03:35:37.119Z,85.70
2018-05-07T03:38:04.620Z,86.10
2018-05-07T03:40:32.122Z,86.60
2018-05-07T03:42:59.679Z,85.70
2018-05-07T03:45:27.749Z,85.50
2018-05-07T03:47:55.330Z,85.40
2018-05-07T03:50:22.909Z,85.70
2018-05-07T03:52:50.485Z,86.00
2018-05-07T03:55:18.315Z,85.70
2018-05-07T03:57:46.801Z,85.30
2018-05-07T04:00:14.365Z,85.30
2018-05-07T04:02:42.292Z,85.00
2018-05-07T04:05:09.904Z,85.10
2018-05-07T04:07:37.482Z,84.90
2018-05-07T04:10:05.051Z,84.50
2018-05-07T04:12:32.580Z,83.00
2018-05-07T04:15:00.146Z,82.80
2018-05-07T04:17:40.522Z,82.90
2018-05-07T04:20:20.023Z,82.30
2018-05-07T04:23:00.175Z,81.30
2018-05-07T04:25:30.054Z,80.30
2018-05-07T04:27:57.616Z,80.30
2018-05-07T04:30:25.171Z,78.30
2018-05-07T04:32:52.704Z,75.60
2018-05-07T04:35:20.246Z,73.90
2018-05-07T04:37:47.775Z,72.00
2018-05-07T04:40:16.105Z,70.90
2018-05-07T04:42:43.655Z,70.80
2018-05-07T04:45:11.168Z,70.40
2018-05-07T04:47:38.720Z,69.70
2018-05-07T04:50:06.250Z,68.80
2018-05-07T04:52:33.789Z,68.00
2018-05-07T04:55:01.346Z,67.50
2018-05-07T04:57:29.664Z,66.20
2018-05-07T04:59:57.211Z,66.10
2018-05-07T05:02:24.733Z,65.20
2018-05-07T05:04:52.260Z,65.00
2018-05-07T05:07:20.564Z,63.80
2018-05-07T05:09:48.111Z,63.70
2018-05-07T05:12:17.125Z,62.50
2018-05-07T05:14:44.636Z,62.50
2018-05-07T05:17:13.627Z,61.80
2018-05-07T05:19:41.202Z,61.30
2018-05-07T05:22:08.763Z,60.80
2018-05-07T05:24:37.689Z,60.10
2018-05-07T05:27:05.234Z,60.10
2018-05-07T05:29:32.881Z,59.60
2018-05-07T05:32:01.185Z,58.70
2018-05-07T05:34:28.736Z,58.60
2018-05-07T05:36:56.286Z,58.40
2018-05-07T05:39:24.560Z,58.10
2018-05-07T05:41:52.840Z,57.30
2018-05-07T05:44:21.682Z,57.30
2018-05-07T05:46:53.489Z,57.30
2018-05-07T05:49:21.039Z,57.30
2018-05-07T05:51:50.464Z,56.80
2018-05-07T05:54:18.022Z,56.90
2018-05-07T05:56:46.190Z,56.60
2018-05-07T05:59:13.720Z,57.60
2018-05-07T06:01:42.079Z,56.20
2018-05-07T06:04:09.712Z,56.20
2018-05-07T06:06:37.287Z,56.20
2018-05-07T06:09:05.732Z,56.10
2018-05-07T06:11:33.296Z,56.00
2018-05-07T06:14:00.832Z,55.90
2018-05-07T06:16:29.133Z,56.50
2018-05-07T06:18:56.714Z,56.50
2018-05-07T06:21:24.267Z,57.20
2018-05-07T06:23:51.792Z,55.90
2018-05-07T06:26:19.360Z,56.80
2018-05-07T06:28:46.917Z,56.60
2018-05-07T06:31:14.501Z,57.10
2018-05-07T06:33:42.035Z,56.60
2018-05-07T06:36:09.881Z,55.90
2018-05-07T06:38:58.902Z,55.50
2018-05-07T06:41:27.309Z,55.60
2018-05-07T06:43:54.904Z,54.70
2018-05-07T06:46:22.466Z,54.70
2018-05-07T06:48:50.021Z,54.10
2018-05-07T06:51:17.793Z,53.70
2018-05-07T06:53:45.396Z,53.80
2018-05-07T06:56:12.970Z,53.00
2018-05-07T06:58:40.595Z,53.10
2018-05-07T07:01:08.186Z,53.10
2018-05-07T07:03:35.799Z,53.40
2018-05-07T07:06:03.381Z,52.80
2018-05-07T07:08:31.499Z,53.00
2018-05-07T07:10:58.872Z,52.30
2018-05-07T07:13:26.584Z,52.40
2018-05-07T07:15:54.128Z,51.60
2018-05-07T07:18:22.357Z,51.30
2018-05-07T07:20:49.877Z,51.40
2018-05-07T07:23:17.502Z,51.10
2018-05-07T07:25:46.069Z,50.00
2018-05-07T07:28:13.830Z,50.00
2018-05-07T07:30:45.324Z,50.40
2018-05-07T07:33:12.896Z,50.50
2018-05-07T07:35:41.531Z,50.10
2018-05-07T07:38:14.208Z,49.70
2018-05-07T07:40:42.553Z,49.30
2018-05-07T07:43:10.995Z,49.40
2018-05-07T07:45:39.240Z,50.00
2018-05-07T07:48:08.219Z,49.30
2018-05-07T07:50:42.902Z,48.30
2018-05-07T07:53:12.285Z,47.90
2018-05-07T07:55:41.015Z,48.30
2018-05-07T07:58:09.370Z,47.70
2018-05-07T08:00:49.133Z,47.70
2018-05-07T08:03:37.072Z,47.20
2018-05-07T08:06:07.364Z,47.20
2018-05-07T08:08:36.538Z,47.00
2018-05-07T08:11:04.603Z,46.60
2018-05-07T08:13:32.998Z,47.00
2018-05-07T08:16:06.719Z,47.00
2018-05-07T08:18:34.417Z,46.60
2018-05-07T08:21:02.755Z,46.60
2018-05-07T08:23:31.702Z,46.00
2018-05-07T08:25:59.288Z,45.90
2018-05-07T08:28:27.652Z,46.20
2018-05-07T08:30:56.620Z,46.20
2018-05-07T08:33:25.888Z,46.30
2018-05-07T08:35:54.069Z,46.10
2018-05-07T08:38:23.668Z,45.60
2018-05-07T08:40:51.392Z,45.10
2018-05-07T08:43:19.015Z,44.20
2018-05-07T08:45:51.781Z,44.50
2018-05-07T08:48:25.080Z,44.90
2018-05-07T08:51:03.819Z,45.30
2018-05-07T08:53:34.884Z,45.30
2018-05-07T08:56:04.183Z,44.90
2018-05-07T08:58:34.260Z,44.90
2018-05-07T09:01:02.366Z,44.00
2018-05-07T09:03:38.402Z,44.10
2018-05-07T09:08:44.127Z,44.00
2018-05-07T09:11:12.309Z,43.90
2018-05-07T09:13:40.084Z,42.90
2018-05-07T09:16:07.671Z,43.10
2018-05-07T09:18:35.302Z,43.30
2018-05-07T09:21:04.136Z,43.10
2018-05-07T09:23:32.450Z,42.40
2018-05-07T09:26:00.264Z,42.50
2018-05-07T09:28:28.831Z,41.20
2018-05-07T09:30:56.410Z,41.10
2018-05-07T09:33:24.815Z,41.60
2018-05-07T09:35:52.440Z,41.50
2018-05-07T09:38:20.036Z,40.50
2018-05-07T09:40:47.849Z,40.00
2018-05-07T09:43:15.493Z,40.50
2018-05-07T09:45:43.241Z,39.60
2018-05-07T09:48:11.330Z,38.90
2018-05-07T09:50:39.050Z,39.70
2018-05-07T09:53:06.874Z,40.10
2018-05-07T09:55:34.430Z,38.80
2018-05-07T09:58:03.885Z,40.10
2018-05-07T10:00:37.322Z,38.40
2018-05-07T10:03:04.946Z,37.00
2018-05-07T10:05:32.556Z,38.30
2018-05-07T10:08:00.364Z,37.40
2018-05-07T10:10:27.987Z,36.50
2018-05-07T10:12:55.650Z,37.40
2018-05-07T10:15:23.263Z,37.10
2018-05-07T10:17:51.151Z,36.00
2018-05-07T10:20:18.901Z,36.50
2018-05-07T10:22:46.811Z,36.80
2018-05-07T10:25:15.015Z,36.00
2018-05-07T10:27:43.031Z,37.30
2018-05-07T10:30:10.715Z,37.90
2018-05-07T10:32:38.253Z,37.70
2018-05-07T10:35:06.832Z,37.50
2018-05-07T10:37:37.274Z,37.50
2018-05-07T10:40:04.951Z,37.50
2018-05-07T10:42:33.929Z,37.20
2018-05-07T10:45:03.154Z,37.90
2018-05-07T10:47:30.940Z,37.90
2018-05-07T10:49:58.743Z,36.90
2018-05-07T10:52:27.256Z,35.80
2018-05-07T10:54:56.073Z,35.80
2018-05-07T10:57:23.712Z,35.90
2018-05-07T10:59:51.673Z,36.40
2018-05-07T11:02:19.239Z,37.90
2018-05-07T11:04:46.815Z,38.50
2018-05-07T11:07:14.562Z,38.20
2018-05-07T11:09:42.138Z,37.00
2018-05-07T11:12:11.324Z,35.80
2018-05-07T11:14:38.986Z,35.80
2018-05-07T11:17:06.592Z,35.20
2018-05-07T11:19:35.080Z,35.40
2018-05-07T11:22:02.708Z,36.80
2018-05-07T11:24:30.852Z,37.00
2018-05-07T11:26:59.165Z,36.90
2018-05-07T11:29:26.707Z,36.90
2018-05-07T11:31:55.913Z,36.60
2018-05-07T11:34:23.895Z,36.60
2018-05-07T11:36:51.644Z,35.10
2018-05-07T11:39:19.296Z,34.00
2018-05-07T11:41:54.527Z,34.70
2018-05-07T11:44:23.762Z,34.70
2018-05-07T11:46:59.811Z,34.80
2018-05-07T11:49:30.224Z,35.20
2018-05-07T11:51:57.789Z,35.40
2018-05-07T11:54:25.479Z,35.30
2018-05-07T11:56:53.765Z,34.20
2018-05-07T11:59:22.885Z,34.80
2018-05-07T12:01:52.964Z,35.80
2018-05-07T12:04:22.641Z,34.00
2018-05-07T12:06:50.967Z,34.20
2018-05-07T12:09:18.507Z,34.30
2018-05-07T12:11:46.077Z,34.40
2018-05-07T12:14:13.687Z,34.10
2018-05-07T12:16:43.382Z,34.20
2018-05-07T12:19:11.698Z,34.10
2018-05-07T12:21:39.380Z,34.40
2018-05-07T12:24:06.936Z,34.80
2018-05-07T12:26:34.474Z,32.90
2018-05-07T12:29:02.758Z,32.90
2018-05-07T12:31:30.655Z,33.00
2018-05-07T12:33:58.243Z,33.70
2018-05-07T12:36:25.829Z,33.30
2018-05-07T12:38:54.124Z,33.30
2018-05-07T12:41:22.505Z,33.10
2018-05-07T12:43:50.098Z,33.00
2018-05-07T12:46:17.740Z,32.40
2018-05-07T12:48:45.396Z,32.70
2018-05-07T12:51:12.978Z,32.90
2018-05-07T12:53:42.197Z,32.30
2018-05-07T12:56:11.372Z,32.50
2018-05-07T12:58:39.840Z,33.20
2018-05-07T13:01:08.209Z,33.10
2018-05-07T13:03:36.449Z,33.10
2018-05-07T13:06:04.781Z,30.90
2018-05-07T13:08:32.356Z,31.00
2018-05-07T13:10:59.906Z,30.90
2018-05-07T13:13:28.218Z,30.90
2018-05-07T13:15:57.394Z,30.90
2018-05-07T13:18:27.495Z,30.50
2018-05-07T13:20:57.752Z,30.50
2018-05-07T13:23:26.112Z,30.90
2018-05-07T13:25:53.677Z,30.90
2018-05-07T13:28:21.231Z,31.10
2018-05-07T13:30:48.809Z,31.20
2018-05-07T13:33:17.153Z,31.20
2018-05-07T13:35:45.468Z,31.20
2018-05-07T13:38:13.917Z,29.50
2018-05-07T13:40:42.289Z,29.50
2018-05-07T13:43:10.048Z,29.70
2018-05-07T13:45:37.603Z,30.20
2018-05-07T13:48:05.206Z,29.50
2018-05-07T13:50:32.760Z,29.40
2018-05-07T13:53:00.352Z,28.80
2018-05-07T13:55:27.952Z,27.60
2018-05-07T13:57:55.596Z,27.50
2018-05-07T14:00:23.172Z,27.80
2018-05-07T14:02:50.817Z,27.80
2018-05-07T14:05:18.401Z,28.20
2018-05-07T14:07:45.972Z,27.90
2018-05-07T14:10:13.537Z,28.30
2018-05-07T14:12:41.123Z,27.10
2018-05-07T14:15:08.680Z,27.60
2018-05-07T14:17:37.004Z,27.50
2018-05-07T14:20:04.647Z,27.50
2018-05-07T14:22:32.215Z,27.00
2018-05-07T14:24:59.770Z,27.40
2018-05-07T14:27:28.286Z,27.20
2018-05-07T14:29:55.880Z,27.30
2018-05-07T14:32:23.462Z,27.40
2018-05-07T14:34:51.120Z,27.80
2018-05-07T14:37:18.675Z,27.40
2018-05-07T14:39:46.323Z,27.60
2018-05-07T14:42:14.617Z,27.50
2018-05-07T14:44:42.269Z,27.00
2018-05-07T14:47:09.929Z,27.60
2018-05-07T14:49:37.503Z,27.10
2018-05-07T14:52:05.105Z,27.50
2018-05-07T14:54:33.274Z,27.60
2018-05-07T14:57:00.840Z,27.70
2018-05-07T14:59:28.421Z,27.50
2018-05-07T15:01:56.765Z,28.50
2018-05-07T15:04:24.304Z,28.50
2018-05-07T15:06:51.834Z,28.40
2018-05-07T15:09:19.394Z,28.20
2018-05-07T15:11:46.963Z,28.60
2018-05-07T15:14:23.271Z,28.60
2018-05-07T15:16:50.855Z,28.40
2018-05-07T15:19:19.198Z,28.90
2018-05-07T15:21:46.730Z,28.90
2018-05-07T15:24:14.791Z,28.10
2018-05-07T15:26:42.384Z,27.60
2018-05-07T15:29:10.046Z,26.70
2018-05-07T15:31:37.596Z,27.00
2018-05-07T15:34:05.193Z,27.40
2018-05-07T15:36:33.481Z,27.90
2018-05-07T15:39:01.041Z,28.30
2018-05-07T15:41:28.588Z,27.80
2018-05-07T15:43:56.168Z,28.00
2018-05-07T15:46:23.683Z,27.90
2018-05-07T15:48:51.282Z,27.10
2018-05-07T15:51:19.670Z,26.70
2018-05-07T15:53:48.026Z,27.20
2018-05-07T15:56:15.700Z,27.20
2018-05-07T15:58:44.069Z,27.60
2018-05-07T16:01:12.408Z,27.70
2018-05-07T16:03:39.971Z,27.70
2018-05-07T16:06:07.579Z,28.20
2018-05-07T16:08:35.933Z,27.60
2018-05-07T16:11:03.468Z,27.60
2018-05-07T16:13:31.025Z,28.60
2018-05-07T16:15:58.620Z,27.50
2018-05-07T16:18:26.151Z,27.60
2018-05-07T16:20:53.722Z,27.90
2018-05-07T16:23:21.449Z,27.80
2018-05-07T16:25:48.934Z,28.30
2018-05-07T16:28:16.651Z,28.60
2018-05-07T16:30:44.021Z,28.30
2018-05-07T16:33:11.580Z,28.00
2018-05-07T16:35:39.224Z,28.00
2018-05-07T16:38:06.672Z,28.20
2018-05-07T16:40:34.982Z,27.70
2018-05-07T16:43:02.568Z,27.70
2018-05-07T16:45:30.220Z,28.00
2018-05-07T16:47:57.821Z,28.20
2018-05-07T16:50:27.024Z,27.80
2018-05-07T16:52:55.495Z,27.30
2018-05-07T16:55:22.913Z,27.30
2018-05-07T16:57:50.477Z,26.40
2018-05-07T17:00:18.028Z,26.30
2018-05-07T17:02:45.587Z,25.50
2018-05-07T17:05:13.152Z,25.20
2018-05-07T17:07:40.722Z,25.50
2018-05-07T17:10:08.248Z,25.40
2018-05-07T17:12:35.826Z,24.90
2018-05-07T17:15:03.375Z,24.90
2018-05-07T17:17:30.993Z,24.20
2018-05-07T17:19:58.533Z,23.70
2018-05-07T17:22:26.173Z,23.20
2018-05-07T17:24:53.799Z,22.70
2018-05-07T17:27:21.380Z,21.80
2018-05-07T17:29:48.947Z,21.30
2018-05-07T17:32:16.544Z,20.60
2018-05-07T17:34:44.885Z,19.90
2018-05-07T17:37:12.471Z,19.80
2018-05-07T17:39:40.102Z,19.60
2018-05-07T17:42:07.806Z,19.80
2018-05-07T17:44:48.102Z,18.90
2018-05-07T17:47:37.476Z,18.90
2018-05-07T17:50:05.075Z,18.90
2018-05-07T17:52:32.639Z,18.70
2018-05-07T17:55:00.250Z,19.00
2018-05-07T17:57:27.850Z,19.10
2018-05-07T17:59:55.495Z,20.00
2018-05-07T18:02:23.038Z,20.70
2018-05-07T18:04:50.687Z,21.50
2018-05-07T18:07:18.285Z,22.60
2018-05-07T18:09:45.846Z,23.80
2018-05-07T18:12:13.504Z,24.80
2018-05-07T18:14:41.180Z,27.10
2018-05-07T18:17:09.539Z,31.60
2018-05-07T18:19:37.137Z,31.50
2018-05-07T18:22:05.463Z,36.00
2018-05-07T18:24:33.037Z,35.90
2018-05-07T18:27:00.615Z,37.60
2018-05-07T18:29:28.178Z,38.70
2018-05-07T18:31:55.697Z,39.60
2018-05-07T18:34:24.040Z,40.90
2018-05-07T18:36:52.392Z,41.50
2018-05-07T18:39:19.966Z,42.20
2018-05-07T18:41:47.572Z,42.00
2018-05-07T18:44:15.114Z,42.50
2018-05-07T18:46:43.268Z,43.00
2018-05-07T18:49:11.613Z,43.80
2018-05-07T18:51:39.163Z,43.90
2018-05-07T18:54:06.711Z,44.50
2018-05-07T18:56:34.272Z,45.00
2018-05-07T18:59:01.831Z,45.70
2018-05-07T19:01:29.377Z,46.40
2018-05-07T19:03:56.916Z,47.00
2018-05-07T19:06:25.232Z,48.10
2018-05-07T19:08:52.794Z,48.00
2018-05-07T19:11:21.180Z,48.90
2018-05-07T19:13:48.817Z,49.00
2018-05-07T19:16:16.368Z,49.30
2018-05-07T19:18:43.924Z,49.50
2018-05-07T19:21:11.467Z,49.90
2018-05-07T19:23:39.881Z,50.10
2018-05-07T19:26:07.450Z,50.50
2018-05-07T19:28:35.011Z,50.80
2018-05-07T19:31:02.549Z,51.00
2018-05-07T19:33:30.096Z,51.40
2018-05-07T19:35:57.662Z,51.70
2018-05-07T19:38:25.974Z,52.10
2018-05-07T19:40:53.532Z,52.10
2018-05-07T19:43:21.076Z,52.50
2018-05-07T19:45:48.630Z,52.50
2018-05-07T19:48:16.190Z,52.50
2018-05-07T19:50:43.737Z,53.10
2018-05-07T19:53:11.342Z,53.40
2018-05-07T19:55:38.985Z,53.60
2018-05-07T19:58:07.276Z,54.40
2018-05-07T20:00:34.932Z,54.30
2018-05-07T20:03:03.271Z,54.70
2018-05-07T20:05:30.778Z,54.90
2018-05-07T20:07:58.346Z,55.20
2018-05-07T20:10:25.909Z,55.20
2018-05-07T20:12:53.476Z,55.50
2018-05-07T20:15:21.796Z,56.00
2018-05-07T20:17:49.370Z,55.90
2018-05-07T20:20:16.905Z,56.10
2018-05-07T20:22:45.225Z,56.70
2018-05-07T20:25:12.833Z,56.70
2018-05-07T20:27:40.388Z,57.00
2018-05-07T20:30:08.409Z,57.90
2018-05-07T20:32:35.984Z,58.40
2018-05-07T20:35:03.565Z,59.10
2018-05-07T20:37:31.980Z,60.00
2018-05-07T20:39:59.461Z,60.10
2018-05-07T20:42:27.030Z,59.80
2018-05-07T20:44:54.638Z,61.30
2018-05-07T20:47:22.243Z,61.40
2018-05-07T20:49:49.791Z,62.10
2018-05-07T20:52:17.367Z,62.60
2018-05-07T20:54:44.940Z,62.70
2018-05-07T20:57:14.072Z,62.40
2018-05-07T20:59:41.630Z,62.40
2018-05-07T21:02:09.230Z,64.30
2018-05-07T21:04:36.890Z,64.70
2018-05-07T21:07:05.242Z,66.30
2018-05-07T21:09:32.795Z,66.40
2018-05-07T21:12:00.360Z,66.10
2018-05-07T21:14:27.931Z,65.90
2018-05-07T21:16:55.507Z,65.80
2018-05-07T21:19:23.104Z,65.90
2018-05-07T21:21:51.443Z,66.10
2018-05-07T21:24:19.040Z,66.00
2018-05-07T21:26:47.342Z,65.40
2018-05-07T21:29:14.922Z,65.40
2018-05-07T21:31:42.472Z,67.10
2018-05-07T21:34:10.054Z,68.20
2018-05-07T21:36:38.237Z,68.10
2018-05-07T21:39:06.650Z,68.20
2018-05-07T21:41:34.990Z,69.00
2018-05-07T21:44:02.549Z,68.90
2018-05-07T21:46:30.115Z,68.60
2018-05-07T21:48:57.697Z,68.00
2018-05-07T21:51:26.703Z,70.00
2018-05-07T21:53:54.278Z,70.00
2018-05-07T21:56:21.935Z,71.00
2018-05-07T21:58:49.527Z,69.80
2018-05-07T22:01:17.086Z,71.10
2018-05-07T22:03:44.628Z,71.20
2018-05-07T22:06:12.208Z,70.70
2018-05-07T22:08:39.800Z,71.20
2018-05-07T22:11:07.348Z,72.10
2018-05-07T22:13:35.052Z,72.00
2018-05-07T22:16:02.594Z,72.30
2018-05-07T22:18:30.139Z,72.30
2018-05-07T22:20:58.279Z,72.60
2018-05-07T22:23:25.886Z,73.30
2018-05-07T22:25:54.219Z,73.90
2018-05-07T22:28:21.728Z,73.90
2018-05-07T22:30:50.095Z,73.90
2018-05-07T22:33:17.665Z,73.90
2018-05-07T22:35:45.718Z,74.70
2018-05-07T22:38:13.366Z,75.90
2018-05-07T22:40:40.923Z,76.10
2018-05-07T22:43:08.497Z,76.10
2018-05-07T22:45:36.738Z,76.20
2018-05-07T22:48:04.257Z,76.10
2018-05-07T22:50:32.587Z,76.20
2018-05-07T22:53:00.193Z,76.20
2018-05-07T22:55:27.833Z,76.10
2018-05-07T22:57:56.163Z,75.90
2018-05-07T23:00:23.785Z,75.80
2018-05-07T23:02:52.750Z,77.10
2018-05-07T23:05:20.354Z,77.10
2018-05-07T23:07:47.896Z,77.30
2018-05-07T23:10:16.228Z,77.60
2018-05-07T23:12:43.775Z,77.60
2018-05-07T23:15:11.399Z,78.00
2018-05-07T23:17:38.945Z,78.20
2018-05-07T23:20:07.361Z,78.10
2018-05-07T23:22:34.990Z,78.00
2018-05-07T23:25:03.295Z,77.70
2018-05-07T23:27:30.926Z,77.70
2018-05-07T23:29:59.240Z,78.60
2018-05-07T23:32:27.684Z,78.60
2018-05-07T23:34:56.032Z,78.10
2018-05-07T23:37:23.630Z,78.10
2018-05-07T23:39:51.196Z,77.90
2018-05-07T23:42:18.788Z,77.70
2018-05-07T23:44:46.358Z,78.40
2018-05-07T23:47:13.908Z,78.50
2018-05-07T23:49:41.445Z,79.40
2018-05-07T23:52:09.005Z,79.60
2018-05-07T23:54:37.338Z,80.00
2018-05-07T23:57:06.378Z,80.30
2018-05-07T23:59:33.936Z,80.30
